sensor_id;sensor_type;location;lat;lon;timestamp;P1;durP1;ratioP1;P2;durP2;ratioP2
13967;SDS011;39536;52.198;9.920;2023-02-04T00:01:55;20.00;;;5.03;;
13967;SDS011;39536;52.198;9.920;2023-02-04T00:04:21;23.87;;;4.73;;
13967;SDS011;39536;52.198;9.920;2023-02-04T00:06:49;35.03;;;8.17;;
13967;SDS011;39536;52.198;9.920;2023-02-04T00:09:16;17.83;;;5.20;;
13967;SDS011;39536;52.198;9.920;2023-02-04T00:11:42;20.00;;;5.57;;
13967;SDS011;39536;52.198;9.920;2023-02-04T00:14:09;27.20;;;5.47;;
13967;SDS011;39536;52.198;9.920;2023-02-04T00:16:36;28.10;;;6.23;;
13967;SDS011;39536;52.198;9.920;2023-02-04T00:19:03;18.83;;;4.53;;
13967;SDS011;39536;52.198;9.920;2023-02-04T00:21:29;24.37;;;4.57;;
13967;SDS011;39536;52.198;9.920;2023-02-04T00:23:57;20.27;;;4.67;;
13967;SDS011;39536;52.198;9.920;2023-02-04T00:26:24;20.80;;;4.10;;
13967;SDS011;39536;52.198;9.920;2023-02-04T00:28:50;10.00;;;3.33;;
13967;SDS011;39536;52.198;9.920;2023-02-04T00:31:17;14.43;;;2.60;;
13967;SDS011;39536;52.198;9.920;2023-02-04T00:33:43;14.53;;;2.73;;
13967;SDS011;39536;52.198;9.920;2023-02-04T00:36:10;19.30;;;4.17;;
13967;SDS011;39536;52.198;9.920;2023-02-04T00:38:36;16.07;;;3.63;;
13967;SDS011;39536;52.198;9.920;2023-02-04T00:41:04;28.30;;;4.40;;
13967;SDS011;39536;52.198;9.920;2023-02-04T00:43:31;24.10;;;5.40;;
13967;SDS011;39536;52.198;9.920;2023-02-04T00:45:58;13.77;;;3.53;;
13967;SDS011;39536;52.198;9.920;2023-02-04T00:48:24;20.50;;;4.13;;
13967;SDS011;39536;52.198;9.920;2023-02-04T00:50:51;17.67;;;3.50;;
13967;SDS011;39536;52.198;9.920;2023-02-04T00:53:18;16.37;;;3.53;;
13967;SDS011;39536;52.198;9.920;2023-02-04T00:55:44;11.60;;;3.20;;
13967;SDS011;39536;52.198;9.920;2023-02-04T00:58:12;13.30;;;2.70;;
13967;SDS011;39536;52.198;9.920;2023-02-04T01:00:39;17.60;;;3.70;;
13967;SDS011;39536;52.198;9.920;2023-02-04T01:03:05;7.73;;;2.53;;
13967;SDS011;39536;52.198;9.920;2023-02-04T01:05:32;10.43;;;2.73;;
13967;SDS011;39536;52.198;9.920;2023-02-04T01:07:59;6.53;;;2.33;;
13967;SDS011;39536;52.198;9.920;2023-02-04T01:10:25;8.60;;;2.60;;
13967;SDS011;39536;52.198;9.920;2023-02-04T01:12:52;8.07;;;2.10;;
13967;SDS011;39536;52.198;9.920;2023-02-04T01:15:20;6.63;;;1.67;;
13967;SDS011;39536;52.198;9.920;2023-02-04T01:17:47;4.10;;;1.17;;
13967;SDS011;39536;52.198;9.920;2023-02-04T01:20:14;5.97;;;1.30;;
13967;SDS011;39536;52.198;9.920;2023-02-04T01:22:41;5.60;;;1.40;;
13967;SDS011;39536;52.198;9.920;2023-02-04T01:25:07;3.87;;;2.00;;
13967;SDS011;39536;52.198;9.920;2023-02-04T01:27:34;4.00;;;1.00;;
13967;SDS011;39536;52.198;9.920;2023-02-04T01:30:00;3.80;;;1.47;;
13967;SDS011;39536;52.198;9.920;2023-02-04T01:32:28;7.67;;;1.50;;
13967;SDS011;39536;52.198;9.920;2023-02-04T01:34:55;7.60;;;1.50;;
13967;SDS011;39536;52.198;9.920;2023-02-04T01:37:21;2.73;;;1.43;;
13967;SDS011;39536;52.198;9.920;2023-02-04T01:39:48;3.17;;;1.30;;
13967;SDS011;39536;52.198;9.920;2023-02-04T01:42:14;3.73;;;1.47;;
13967;SDS011;39536;52.198;9.920;2023-02-04T01:44:41;4.33;;;1.23;;
13967;SDS011;39536;52.198;9.920;2023-02-04T01:47:08;3.47;;;1.80;;
13967;SDS011;39536;52.198;9.920;2023-02-04T01:49:36;2.83;;;0.90;;
13967;SDS011;39536;52.198;9.920;2023-02-04T01:52:03;2.93;;;1.40;;
13967;SDS011;39536;52.198;9.920;2023-02-04T01:54:30;2.43;;;1.30;;
13967;SDS011;39536;52.198;9.920;2023-02-04T01:56:57;2.67;;;1.10;;
13967;SDS011;39536;52.198;9.920;2023-02-04T01:59:24;3.37;;;1.40;;
13967;SDS011;39536;52.198;9.920;2023-02-04T02:01:52;3.47;;;1.40;;
13967;SDS011;39536;52.198;9.920;2023-02-04T02:04:19;1.33;;;0.70;;
13967;SDS011;39536;52.198;9.920;2023-02-04T02:06:56;2.63;;;0.93;;
13967;SDS011;39536;52.198;9.920;2023-02-04T02:09:24;1.90;;;1.07;;
13967;SDS011;39536;52.198;9.920;2023-02-04T02:11:52;2.97;;;0.97;;
13967;SDS011;39536;52.198;9.920;2023-02-04T02:14:19;2.63;;;1.07;;
13967;SDS011;39536;52.198;9.920;2023-02-04T02:16:46;2.33;;;1.40;;
13967;SDS011;39536;52.198;9.920;2023-02-04T02:19:14;2.10;;;0.90;;
13967;SDS011;39536;52.198;9.920;2023-02-04T02:21:46;2.10;;;0.93;;
13967;SDS011;39536;52.198;9.920;2023-02-04T02:24:27;2.23;;;1.17;;
13967;SDS011;39536;52.198;9.920;2023-02-04T02:26:55;1.10;;;1.00;;
13967;SDS011;39536;52.198;9.920;2023-02-04T02:29:24;1.90;;;1.00;;
13967;SDS011;39536;52.198;9.920;2023-02-04T02:31:51;1.33;;;1.03;;
13967;SDS011;39536;52.198;9.920;2023-02-04T02:34:21;2.00;;;1.37;;
13967;SDS011;39536;52.198;9.920;2023-02-04T02:36:48;4.10;;;0.80;;
13967;SDS011;39536;52.198;9.920;2023-02-04T02:39:15;1.07;;;0.60;;
13967;SDS011;39536;52.198;9.920;2023-02-04T02:41:44;3.30;;;1.00;;
13967;SDS011;39536;52.198;9.920;2023-02-04T02:44:11;1.83;;;1.20;;
13967;SDS011;39536;52.198;9.920;2023-02-04T02:46:39;1.13;;;0.73;;
13967;SDS011;39536;52.198;9.920;2023-02-04T02:49:07;2.00;;;0.60;;
13967;SDS011;39536;52.198;9.920;2023-02-04T02:51:39;1.63;;;1.13;;
13967;SDS011;39536;52.198;9.920;2023-02-04T02:54:07;2.27;;;0.70;;
13967;SDS011;39536;52.198;9.920;2023-02-04T02:56:44;1.20;;;0.80;;
13967;SDS011;39536;52.198;9.920;2023-02-04T02:59:11;0.80;;;0.70;;
13967;SDS011;39536;52.198;9.920;2023-02-04T03:01:38;0.67;;;0.57;;
13967;SDS011;39536;52.198;9.920;2023-02-04T03:04:06;2.07;;;0.90;;
13967;SDS011;39536;52.198;9.920;2023-02-04T03:06:33;0.70;;;0.70;;
13967;SDS011;39536;52.198;9.920;2023-02-04T03:08:59;1.77;;;0.90;;
13967;SDS011;39536;52.198;9.920;2023-02-04T03:11:26;3.57;;;0.90;;
13967;SDS011;39536;52.198;9.920;2023-02-04T03:13:55;0.90;;;0.90;;
13967;SDS011;39536;52.198;9.920;2023-02-04T03:16:23;1.20;;;0.63;;
13967;SDS011;39536;52.198;9.920;2023-02-04T03:18:49;0.97;;;0.70;;
13967;SDS011;39536;52.198;9.920;2023-02-04T03:21:16;1.70;;;0.90;;
13967;SDS011;39536;52.198;9.920;2023-02-04T03:23:43;1.00;;;0.90;;
13967;SDS011;39536;52.198;9.920;2023-02-04T03:26:09;2.33;;;0.77;;
13967;SDS011;39536;52.198;9.920;2023-02-04T03:28:38;2.30;;;1.00;;
13967;SDS011;39536;52.198;9.920;2023-02-04T03:31:06;0.90;;;0.90;;
13967;SDS011;39536;52.198;9.920;2023-02-04T03:33:33;1.17;;;0.90;;
13967;SDS011;39536;52.198;9.920;2023-02-04T03:36:00;1.13;;;0.80;;
13967;SDS011;39536;52.198;9.920;2023-02-04T03:38:27;0.80;;;0.80;;
13967;SDS011;39536;52.198;9.920;2023-02-04T03:40:53;1.70;;;1.10;;
13967;SDS011;39536;52.198;9.920;2023-02-04T03:43:20;0.90;;;0.90;;
13967;SDS011;39536;52.198;9.920;2023-02-04T03:45:46;2.33;;;0.90;;
13967;SDS011;39536;52.198;9.920;2023-02-04T03:48:14;4.00;;;0.97;;
13967;SDS011;39536;52.198;9.920;2023-02-04T03:50:41;0.80;;;0.70;;
13967;SDS011;39536;52.198;9.920;2023-02-04T03:53:08;1.40;;;1.03;;
13967;SDS011;39536;52.198;9.920;2023-02-04T03:55:35;0.80;;;0.80;;
13967;SDS011;39536;52.198;9.920;2023-02-04T03:58:01;1.40;;;1.00;;
13967;SDS011;39536;52.198;9.920;2023-02-04T04:00:28;1.93;;;1.30;;
13967;SDS011;39536;52.198;9.920;2023-02-04T04:02:56;0.80;;;0.80;;
13967;SDS011;39536;52.198;9.920;2023-02-04T04:05:24;1.20;;;1.10;;
13967;SDS011;39536;52.198;9.920;2023-02-04T04:07:52;2.43;;;1.33;;
13967;SDS011;39536;52.198;9.920;2023-02-04T04:10:18;1.03;;;1.00;;
13967;SDS011;39536;52.198;9.920;2023-02-04T04:12:45;1.20;;;1.10;;
13967;SDS011;39536;52.198;9.920;2023-02-04T04:15:11;1.30;;;0.80;;
13967;SDS011;39536;52.198;9.920;2023-02-04T04:17:38;0.90;;;0.90;;
13967;SDS011;39536;52.198;9.920;2023-02-04T04:20:05;1.50;;;1.40;;
13967;SDS011;39536;52.198;9.920;2023-02-04T04:22:33;1.43;;;1.03;;
13967;SDS011;39536;52.198;9.920;2023-02-04T04:25:00;0.80;;;0.80;;
13967;SDS011;39536;52.198;9.920;2023-02-04T04:27:26;1.00;;;1.00;;
13967;SDS011;39536;52.198;9.920;2023-02-04T04:29:54;1.20;;;1.10;;
13967;SDS011;39536;52.198;9.920;2023-02-04T04:32:20;1.17;;;1.07;;
13967;SDS011;39536;52.198;9.920;2023-02-04T04:34:47;1.23;;;1.00;;
13967;SDS011;39536;52.198;9.920;2023-02-04T04:37:14;1.47;;;1.20;;
13967;SDS011;39536;52.198;9.920;2023-02-04T04:39:42;1.83;;;1.23;;
13967;SDS011;39536;52.198;9.920;2023-02-04T04:42:08;2.23;;;1.00;;
13967;SDS011;39536;52.198;9.920;2023-02-04T04:44:35;0.80;;;0.80;;
13967;SDS011;39536;52.198;9.920;2023-02-04T04:47:01;0.97;;;0.97;;
13967;SDS011;39536;52.198;9.920;2023-02-04T04:49:28;0.80;;;0.80;;
13967;SDS011;39536;52.198;9.920;2023-02-04T04:51:54;2.50;;;1.43;;
13967;SDS011;39536;52.198;9.920;2023-02-04T04:54:21;1.83;;;1.57;;
13967;SDS011;39536;52.198;9.920;2023-02-04T04:56:49;1.50;;;1.40;;
13967;SDS011;39536;52.198;9.920;2023-02-04T04:59:15;1.30;;;1.20;;
13967;SDS011;39536;52.198;9.920;2023-02-04T05:01:42;1.80;;;1.67;;
13967;SDS011;39536;52.198;9.920;2023-02-04T05:04:09;2.33;;;1.60;;
13967;SDS011;39536;52.198;9.920;2023-02-04T05:06:35;2.80;;;2.60;;
13967;SDS011;39536;52.198;9.920;2023-02-04T05:09:02;3.33;;;2.73;;
13967;SDS011;39536;52.198;9.920;2023-02-04T05:11:28;2.00;;;1.90;;
13967;SDS011;39536;52.198;9.920;2023-02-04T05:13:56;1.63;;;1.53;;
13967;SDS011;39536;52.198;9.920;2023-02-04T05:16:23;2.70;;;1.70;;
13967;SDS011;39536;52.198;9.920;2023-02-04T05:18:49;1.40;;;1.30;;
13967;SDS011;39536;52.198;9.920;2023-02-04T05:21:16;1.10;;;1.10;;
13967;SDS011;39536;52.198;9.920;2023-02-04T05:23:42;1.50;;;1.40;;
13967;SDS011;39536;52.198;9.920;2023-02-04T05:26:09;1.67;;;1.57;;
13967;SDS011;39536;52.198;9.920;2023-02-04T05:28:36;2.10;;;2.00;;
13967;SDS011;39536;52.198;9.920;2023-02-04T05:31:04;1.77;;;1.67;;
13967;SDS011;39536;52.198;9.920;2023-02-04T05:33:30;1.90;;;1.80;;
13967;SDS011;39536;52.198;9.920;2023-02-04T05:35:57;2.20;;;2.00;;
13967;SDS011;39536;52.198;9.920;2023-02-04T05:38:23;2.43;;;1.93;;
13967;SDS011;39536;52.198;9.920;2023-02-04T05:40:50;1.73;;;1.63;;
13967;SDS011;39536;52.198;9.920;2023-02-04T05:43:17;1.27;;;1.17;;
13967;SDS011;39536;52.198;9.920;2023-02-04T05:45:44;1.30;;;1.20;;
13967;SDS011;39536;52.198;9.920;2023-02-04T05:48:12;2.03;;;1.83;;
13967;SDS011;39536;52.198;9.920;2023-02-04T05:50:38;4.97;;;1.97;;
13967;SDS011;39536;52.198;9.920;2023-02-04T05:53:05;2.27;;;2.17;;
13967;SDS011;39536;52.198;9.920;2023-02-04T05:55:31;2.27;;;2.07;;
13967;SDS011;39536;52.198;9.920;2023-02-04T05:57:58;2.33;;;1.90;;
13967;SDS011;39536;52.198;9.920;2023-02-04T06:00:24;1.83;;;1.73;;
13967;SDS011;39536;52.198;9.920;2023-02-04T06:02:51;2.30;;;2.10;;
13967;SDS011;39536;52.198;9.920;2023-02-04T06:05:19;1.90;;;1.80;;
13967;SDS011;39536;52.198;9.920;2023-02-04T06:07:47;2.33;;;1.50;;
13967;SDS011;39536;52.198;9.920;2023-02-04T06:10:13;2.57;;;1.67;;
13967;SDS011;39536;52.198;9.920;2023-02-04T06:12:40;1.60;;;1.30;;
13967;SDS011;39536;52.198;9.920;2023-02-04T06:15:07;1.77;;;1.67;;
13967;SDS011;39536;52.198;9.920;2023-02-04T06:17:34;2.50;;;2.37;;
13967;SDS011;39536;52.198;9.920;2023-02-04T06:20:01;2.67;;;2.47;;
13967;SDS011;39536;52.198;9.920;2023-02-04T06:22:29;4.00;;;2.53;;
13967;SDS011;39536;52.198;9.920;2023-02-04T06:24:56;2.73;;;2.53;;
13967;SDS011;39536;52.198;9.920;2023-02-04T06:27:22;3.23;;;2.30;;
13967;SDS011;39536;52.198;9.920;2023-02-04T06:29:49;4.47;;;2.10;;
13967;SDS011;39536;52.198;9.920;2023-02-04T06:32:16;2.67;;;2.47;;
13967;SDS011;39536;52.198;9.920;2023-02-04T06:34:43;2.30;;;2.10;;
13967;SDS011;39536;52.198;9.920;2023-02-04T06:37:10;2.53;;;2.37;;
13967;SDS011;39536;52.198;9.920;2023-02-04T06:39:38;2.47;;;2.27;;
13967;SDS011;39536;52.198;9.920;2023-02-04T06:42:05;2.93;;;2.57;;
13967;SDS011;39536;52.198;9.920;2023-02-04T06:44:32;2.80;;;2.60;;
13967;SDS011;39536;52.198;9.920;2023-02-04T06:46:58;2.77;;;2.57;;
13967;SDS011;39536;52.198;9.920;2023-02-04T06:49:25;4.43;;;3.10;;
13967;SDS011;39536;52.198;9.920;2023-02-04T06:51:52;3.00;;;2.70;;
13967;SDS011;39536;52.198;9.920;2023-02-04T06:54:19;4.93;;;2.60;;
13967;SDS011;39536;52.198;9.920;2023-02-04T06:56:47;3.10;;;2.70;;
13967;SDS011;39536;52.198;9.920;2023-02-04T06:59:14;2.70;;;2.50;;
13967;SDS011;39536;52.198;9.920;2023-02-04T07:01:40;3.40;;;3.17;;
13967;SDS011;39536;52.198;9.920;2023-02-04T07:04:07;3.37;;;3.10;;
13967;SDS011;39536;52.198;9.920;2023-02-04T07:06:34;2.97;;;2.77;;
13967;SDS011;39536;52.198;9.920;2023-02-04T07:09:00;4.53;;;3.50;;
13967;SDS011;39536;52.198;9.920;2023-02-04T07:11:27;3.63;;;3.33;;
13967;SDS011;39536;52.198;9.920;2023-02-04T07:13:55;3.40;;;3.20;;
13967;SDS011;39536;52.198;9.920;2023-02-04T07:16:22;3.63;;;3.17;;
13967;SDS011;39536;52.198;9.920;2023-02-04T07:18:49;3.00;;;2.63;;
13967;SDS011;39536;52.198;9.920;2023-02-04T07:21:15;3.50;;;3.27;;
13967;SDS011;39536;52.198;9.920;2023-02-04T07:23:42;4.30;;;3.37;;
13967;SDS011;39536;52.198;9.920;2023-02-04T07:26:08;3.07;;;2.87;;
13967;SDS011;39536;52.198;9.920;2023-02-04T07:28:35;2.87;;;2.67;;
13967;SDS011;39536;52.198;9.920;2023-02-04T07:31:03;4.23;;;3.23;;
13967;SDS011;39536;52.198;9.920;2023-02-04T07:33:30;2.87;;;2.67;;
13967;SDS011;39536;52.198;9.920;2023-02-04T07:35:56;2.70;;;2.50;;
13967;SDS011;39536;52.198;9.920;2023-02-04T07:38:23;3.17;;;2.90;;
13967;SDS011;39536;52.198;9.920;2023-02-04T07:40:50;3.73;;;2.83;;
13967;SDS011;39536;52.198;9.920;2023-02-04T07:43:16;2.97;;;2.77;;
13967;SDS011;39536;52.198;9.920;2023-02-04T07:45:43;2.90;;;2.70;;
13967;SDS011;39536;52.198;9.920;2023-02-04T07:48:11;3.63;;;3.07;;
13967;SDS011;39536;52.198;9.920;2023-02-04T07:50:37;3.63;;;3.33;;
13967;SDS011;39536;52.198;9.920;2023-02-04T07:53:04;4.70;;;4.27;;
13967;SDS011;39536;52.198;9.920;2023-02-04T07:55:31;4.53;;;4.13;;
13967;SDS011;39536;52.198;9.920;2023-02-04T07:57:57;4.67;;;3.53;;
13967;SDS011;39536;52.198;9.920;2023-02-04T08:00:24;4.10;;;3.73;;
13967;SDS011;39536;52.198;9.920;2023-02-04T08:02:51;3.77;;;3.03;;
13967;SDS011;39536;52.198;9.920;2023-02-04T08:05:19;3.00;;;2.80;;
13967;SDS011;39536;52.198;9.920;2023-02-04T08:07:45;3.13;;;2.13;;
13967;SDS011;39536;52.198;9.920;2023-02-04T08:10:12;3.27;;;2.57;;
13967;SDS011;39536;52.198;9.920;2023-02-04T08:12:38;3.10;;;2.80;;
13967;SDS011;39536;52.198;9.920;2023-02-04T08:15:05;2.80;;;2.60;;
13967;SDS011;39536;52.198;9.920;2023-02-04T08:17:32;2.93;;;2.70;;
13967;SDS011;39536;52.198;9.920;2023-02-04T08:19:59;3.10;;;2.80;;
13967;SDS011;39536;52.198;9.920;2023-02-04T08:22:27;3.03;;;2.83;;
13967;SDS011;39536;52.198;9.920;2023-02-04T08:24:54;2.77;;;2.57;;
13967;SDS011;39536;52.198;9.920;2023-02-04T08:27:20;3.13;;;2.93;;
13967;SDS011;39536;52.198;9.920;2023-02-04T08:29:47;3.13;;;2.93;;
13967;SDS011;39536;52.198;9.920;2023-02-04T08:32:14;3.50;;;3.00;;
13967;SDS011;39536;52.198;9.920;2023-02-04T08:34:40;3.47;;;3.27;;
13967;SDS011;39536;52.198;9.920;2023-02-04T08:37:08;3.97;;;3.57;;
13967;SDS011;39536;52.198;9.920;2023-02-04T08:39:36;5.10;;;3.70;;
13967;SDS011;39536;52.198;9.920;2023-02-04T08:42:03;4.00;;;3.70;;
13967;SDS011;39536;52.198;9.920;2023-02-04T08:44:30;5.70;;;4.20;;
13967;SDS011;39536;52.198;9.920;2023-02-04T08:46:56;4.40;;;4.10;;
13967;SDS011;39536;52.198;9.920;2023-02-04T08:49:23;4.57;;;4.20;;
13967;SDS011;39536;52.198;9.920;2023-02-04T08:51:49;5.73;;;4.40;;
13967;SDS011;39536;52.198;9.920;2023-02-04T08:54:16;4.53;;;4.13;;
13967;SDS011;39536;52.198;9.920;2023-02-04T08:56:44;5.07;;;4.30;;
13967;SDS011;39536;52.198;9.920;2023-02-04T08:59:11;3.60;;;3.30;;
13967;SDS011;39536;52.198;9.920;2023-02-04T09:01:37;4.37;;;3.63;;
13967;SDS011;39536;52.198;9.920;2023-02-04T09:04:04;2.87;;;2.67;;
13967;SDS011;39536;52.198;9.920;2023-02-04T09:06:31;5.37;;;3.17;;
13967;SDS011;39536;52.198;9.920;2023-02-04T09:08:58;3.70;;;3.40;;
13967;SDS011;39536;52.198;9.920;2023-02-04T09:11:24;2.67;;;2.47;;
13967;SDS011;39536;52.198;9.920;2023-02-04T09:13:52;2.90;;;2.70;;
13967;SDS011;39536;52.198;9.920;2023-02-04T09:16:21;2.83;;;2.63;;
13967;SDS011;39536;52.198;9.920;2023-02-04T09:18:47;9.30;;;8.60;;
13967;SDS011;39536;52.198;9.920;2023-02-04T09:21:14;3.77;;;3.47;;
13967;SDS011;39536;52.198;9.920;2023-02-04T09:23:41;4.30;;;3.93;;
13967;SDS011;39536;52.198;9.920;2023-02-04T09:26:08;4.37;;;3.10;;
13967;SDS011;39536;52.198;9.920;2023-02-04T09:28:35;5.17;;;3.40;;
13967;SDS011;39536;52.198;9.920;2023-02-04T09:31:03;2.70;;;2.50;;
13967;SDS011;39536;52.198;9.920;2023-02-04T09:33:30;3.27;;;2.93;;
13967;SDS011;39536;52.198;9.920;2023-02-04T09:35:58;4.50;;;3.13;;
13967;SDS011;39536;52.198;9.920;2023-02-04T09:38:24;2.80;;;2.60;;
13967;SDS011;39536;52.198;9.920;2023-02-04T09:40:52;2.70;;;2.13;;
13967;SDS011;39536;52.198;9.920;2023-02-04T09:43:23;3.30;;;3.00;;
13967;SDS011;39536;52.198;9.920;2023-02-04T09:45:51;3.07;;;2.87;;
13967;SDS011;39536;52.198;9.920;2023-02-04T09:48:21;3.37;;;2.70;;
13967;SDS011;39536;52.198;9.920;2023-02-04T09:50:48;7.90;;;2.87;;
13967;SDS011;39536;52.198;9.920;2023-02-04T09:53:16;4.43;;;3.50;;
13967;SDS011;39536;52.198;9.920;2023-02-04T09:55:46;3.70;;;3.40;;
13967;SDS011;39536;52.198;9.920;2023-02-04T09:58:16;3.27;;;3.00;;
13967;SDS011;39536;52.198;9.920;2023-02-04T10:00:45;3.30;;;3.00;;
13967;SDS011;39536;52.198;9.920;2023-02-04T10:03:13;2.80;;;2.60;;
13967;SDS011;39536;52.198;9.920;2023-02-04T10:05:43;3.07;;;2.77;;
13967;SDS011;39536;52.198;9.920;2023-02-04T10:08:11;4.90;;;3.90;;
13967;SDS011;39536;52.198;9.920;2023-02-04T10:10:40;3.97;;;3.57;;
13967;SDS011;39536;52.198;9.920;2023-02-04T10:13:07;3.00;;;2.70;;
13967;SDS011;39536;52.198;9.920;2023-02-04T10:15:42;6.47;;;4.00;;
13967;SDS011;39536;52.198;9.920;2023-02-04T10:18:10;4.10;;;2.93;;
13967;SDS011;39536;52.198;9.920;2023-02-04T10:20:46;4.50;;;2.90;;
13967;SDS011;39536;52.198;9.920;2023-02-04T10:23:12;3.10;;;2.90;;
13967;SDS011;39536;52.198;9.920;2023-02-04T10:25:39;3.03;;;2.73;;
13967;SDS011;39536;52.198;9.920;2023-02-04T10:28:06;3.20;;;3.00;;
13967;SDS011;39536;52.198;9.920;2023-02-04T10:30:37;3.63;;;3.00;;
13967;SDS011;39536;52.198;9.920;2023-02-04T10:33:11;3.53;;;3.03;;
13967;SDS011;39536;52.198;9.920;2023-02-04T10:35:43;2.77;;;2.57;;
13967;SDS011;39536;52.198;9.920;2023-02-04T10:38:13;4.47;;;2.90;;
13967;SDS011;39536;52.198;9.920;2023-02-04T10:40:39;3.67;;;3.40;;
13967;SDS011;39536;52.198;9.920;2023-02-04T10:43:07;4.73;;;3.90;;
13967;SDS011;39536;52.198;9.920;2023-02-04T10:45:35;5.43;;;4.97;;
13967;SDS011;39536;52.198;9.920;2023-02-04T10:48:03;4.50;;;4.03;;
13967;SDS011;39536;52.198;9.920;2023-02-04T10:50:32;6.10;;;4.13;;
13967;SDS011;39536;52.198;9.920;2023-02-04T10:53:00;4.50;;;4.03;;
13967;SDS011;39536;52.198;9.920;2023-02-04T10:55:45;3.50;;;3.20;;
13967;SDS011;39536;52.198;9.920;2023-02-04T10:58:14;5.27;;;3.77;;
13967;SDS011;39536;52.198;9.920;2023-02-04T11:00:44;4.00;;;3.60;;
13967;SDS011;39536;52.198;9.920;2023-02-04T11:03:14;4.13;;;3.13;;
13967;SDS011;39536;52.198;9.920;2023-02-04T11:05:43;3.83;;;3.50;;
13967;SDS011;39536;52.198;9.920;2023-02-04T11:08:21;5.67;;;3.70;;
13967;SDS011;39536;52.198;9.920;2023-02-04T11:10:50;4.90;;;4.40;;
13967;SDS011;39536;52.198;9.920;2023-02-04T11:13:22;3.50;;;3.20;;
13967;SDS011;39536;52.198;9.920;2023-02-04T11:15:54;3.80;;;3.40;;
13967;SDS011;39536;52.198;9.920;2023-02-04T11:18:42;3.00;;;2.80;;
13967;SDS011;39536;52.198;9.920;2023-02-04T11:21:13;5.60;;;3.27;;
13967;SDS011;39536;52.198;9.920;2023-02-04T11:23:42;4.07;;;2.90;;
13967;SDS011;39536;52.198;9.920;2023-02-04T11:26:10;2.40;;;2.20;;
13967;SDS011;39536;52.198;9.920;2023-02-04T11:31:41;3.00;;;2.80;;
13967;SDS011;39536;52.198;9.920;2023-02-04T11:34:22;3.03;;;2.73;;
13967;SDS011;39536;52.198;9.920;2023-02-04T11:36:56;3.10;;;2.80;;
13967;SDS011;39536;52.198;9.920;2023-02-04T11:39:33;3.53;;;2.90;;
13967;SDS011;39536;52.198;9.920;2023-02-04T11:42:02;6.03;;;3.50;;
13967;SDS011;39536;52.198;9.920;2023-02-04T11:44:29;4.53;;;3.37;;
13967;SDS011;39536;52.198;9.920;2023-02-04T11:46:57;4.03;;;2.60;;
13967;SDS011;39536;52.198;9.920;2023-02-04T11:49:25;3.50;;;3.20;;
13967;SDS011;39536;52.198;9.920;2023-02-04T11:52:01;3.30;;;3.00;;
13967;SDS011;39536;52.198;9.920;2023-02-04T11:54:34;7.57;;;3.30;;
13967;SDS011;39536;52.198;9.920;2023-02-04T11:57:01;4.30;;;3.03;;
13967;SDS011;39536;52.198;9.920;2023-02-04T11:59:27;3.30;;;2.90;;
13967;SDS011;39536;52.198;9.920;2023-02-04T12:02:02;3.63;;;3.07;;
13967;SDS011;39536;52.198;9.920;2023-02-04T12:04:30;3.27;;;2.93;;
13967;SDS011;39536;52.198;9.920;2023-02-04T12:06:57;3.13;;;2.80;;
13967;SDS011;39536;52.198;9.920;2023-02-04T12:09:25;2.93;;;2.70;;
13967;SDS011;39536;52.198;9.920;2023-02-04T12:11:56;2.50;;;2.10;;
13967;SDS011;39536;52.198;9.920;2023-02-04T12:14:27;3.10;;;2.30;;
13967;SDS011;39536;52.198;9.920;2023-02-04T12:16:54;2.93;;;2.70;;
13967;SDS011;39536;52.198;9.920;2023-02-04T12:19:21;2.70;;;2.50;;
13967;SDS011;39536;52.198;9.920;2023-02-04T12:21:48;2.63;;;2.40;;
13967;SDS011;39536;52.198;9.920;2023-02-04T12:24:14;2.77;;;2.27;;
13967;SDS011;39536;52.198;9.920;2023-02-04T12:26:44;3.23;;;2.60;;
13967;SDS011;39536;52.198;9.920;2023-02-04T12:29:12;3.20;;;2.40;;
13967;SDS011;39536;52.198;9.920;2023-02-04T12:31:38;2.73;;;2.17;;
13967;SDS011;39536;52.198;9.920;2023-02-04T12:34:05;6.00;;;2.17;;
13967;SDS011;39536;52.198;9.920;2023-02-04T12:36:32;2.57;;;2.10;;
13967;SDS011;39536;52.198;9.920;2023-02-04T12:38:58;3.27;;;2.30;;
13967;SDS011;39536;52.198;9.920;2023-02-04T12:41:26;2.07;;;1.83;;
13967;SDS011;39536;52.198;9.920;2023-02-04T12:43:53;2.07;;;1.87;;
13967;SDS011;39536;52.198;9.920;2023-02-04T12:46:21;3.10;;;1.70;;
13967;SDS011;39536;52.198;9.920;2023-02-04T12:48:48;4.50;;;3.03;;
13967;SDS011;39536;52.198;9.920;2023-02-04T12:51:15;2.70;;;1.53;;
13967;SDS011;39536;52.198;9.920;2023-02-04T12:53:41;3.17;;;2.20;;
13967;SDS011;39536;52.198;9.920;2023-02-04T12:56:08;2.10;;;1.43;;
13967;SDS011;39536;52.198;9.920;2023-02-04T12:58:34;2.90;;;2.00;;
13967;SDS011;39536;52.198;9.920;2023-02-04T13:01:01;2.00;;;1.80;;
13967;SDS011;39536;52.198;9.920;2023-02-04T13:03:29;3.50;;;1.50;;
13967;SDS011;39536;52.198;9.920;2023-02-04T13:05:56;2.60;;;1.50;;
13967;SDS011;39536;52.198;9.920;2023-02-04T13:08:22;2.33;;;1.50;;
13967;SDS011;39536;52.198;9.920;2023-02-04T13:10:49;1.00;;;1.00;;
13967;SDS011;39536;52.198;9.920;2023-02-04T13:13:16;5.03;;;1.67;;
13967;SDS011;39536;52.198;9.920;2023-02-04T13:15:43;2.33;;;1.20;;
13967;SDS011;39536;52.198;9.920;2023-02-04T13:18:10;7.23;;;1.50;;
13967;SDS011;39536;52.198;9.920;2023-02-04T13:20:38;1.70;;;1.53;;
13967;SDS011;39536;52.198;9.920;2023-02-04T13:23:04;1.63;;;1.53;;
13967;SDS011;39536;52.198;9.920;2023-02-04T13:25:31;1.40;;;1.30;;
13967;SDS011;39536;52.198;9.920;2023-02-04T13:27:58;1.57;;;1.47;;
13967;SDS011;39536;52.198;9.920;2023-02-04T13:30:25;1.63;;;1.57;;
13967;SDS011;39536;52.198;9.920;2023-02-04T13:32:51;2.33;;;1.67;;
13967;SDS011;39536;52.198;9.920;2023-02-04T13:35:18;2.83;;;2.30;;
13967;SDS011;39536;52.198;9.920;2023-02-04T13:37:46;1.40;;;1.30;;
13967;SDS011;39536;52.198;9.920;2023-02-04T13:40:12;2.23;;;1.80;;
13967;SDS011;39536;52.198;9.920;2023-02-04T13:42:39;1.70;;;1.50;;
13967;SDS011;39536;52.198;9.920;2023-02-04T13:45:06;1.50;;;1.40;;
13967;SDS011;39536;52.198;9.920;2023-02-04T13:47:36;1.60;;;1.40;;
13967;SDS011;39536;52.198;9.920;2023-02-04T13:50:03;1.90;;;1.17;;
13967;SDS011;39536;52.198;9.920;2023-02-04T13:52:31;1.87;;;1.70;;
13967;SDS011;39536;52.198;9.920;2023-02-04T13:54:59;1.97;;;1.40;;
13967;SDS011;39536;52.198;9.920;2023-02-04T13:57:26;1.13;;;1.03;;
13967;SDS011;39536;52.198;9.920;2023-02-04T13:59:54;1.70;;;1.50;;
13967;SDS011;39536;52.198;9.920;2023-02-04T14:02:20;1.97;;;1.50;;
13967;SDS011;39536;52.198;9.920;2023-02-04T14:04:48;2.40;;;1.60;;
13967;SDS011;39536;52.198;9.920;2023-02-04T14:07:14;2.50;;;2.13;;
13967;SDS011;39536;52.198;9.920;2023-02-04T14:09:41;2.50;;;1.67;;
13967;SDS011;39536;52.198;9.920;2023-02-04T14:12:09;1.60;;;1.50;;
13967;SDS011;39536;52.198;9.920;2023-02-04T14:14:35;5.50;;;1.67;;
13967;SDS011;39536;52.198;9.920;2023-02-04T14:17:02;1.70;;;1.10;;
13967;SDS011;39536;52.198;9.920;2023-02-04T14:19:29;1.30;;;1.20;;
13967;SDS011;39536;52.198;9.920;2023-02-04T14:21:55;3.70;;;1.50;;
13967;SDS011;39536;52.198;9.920;2023-02-04T14:24:22;2.40;;;1.60;;
13967;SDS011;39536;52.198;9.920;2023-02-04T14:26:49;1.63;;;1.53;;
13967;SDS011;39536;52.198;9.920;2023-02-04T14:29:17;1.83;;;1.40;;
13967;SDS011;39536;52.198;9.920;2023-02-04T14:31:44;1.70;;;1.27;;
13967;SDS011;39536;52.198;9.920;2023-02-04T14:34:10;1.70;;;1.60;;
13967;SDS011;39536;52.198;9.920;2023-02-04T14:36:37;2.17;;;1.30;;
13967;SDS011;39536;52.198;9.920;2023-02-04T14:39:04;1.73;;;1.50;;
13967;SDS011;39536;52.198;9.920;2023-02-04T14:41:30;2.30;;;1.93;;
13967;SDS011;39536;52.198;9.920;2023-02-04T14:43:57;1.43;;;1.33;;
13967;SDS011;39536;52.198;9.920;2023-02-04T14:46:25;1.23;;;1.13;;
13967;SDS011;39536;52.198;9.920;2023-02-04T14:48:52;2.37;;;1.80;;
13967;SDS011;39536;52.198;9.920;2023-02-04T14:51:18;1.40;;;1.30;;